This is the latest recevied weather packets stored in our database for station/object SQ6ELQ-11. If no packets are shown the sender has not sent any weather packets the latest 10 day(s).
| Time | Temp. | Humidity | Pressure | Rain* | Wind** | Luminosity | Snow |
|---|---|---|---|---|---|---|---|
| 1778011081 | 14.44° C | 59% | 1007.6 hPa | 0 mm | - | - | - |
| 1778009982 | 15° C | 59% | 1007.5 hPa | 0 mm | - | - | - |
| 1778008912 | 15° C | 58% | 1007.6 hPa | 0 mm | - | - | - |
| 1778007867 | 15° C | 57% | 1007.7 hPa | 0 mm | - | - | - |
| 1778006825 | 15.56° C | 57% | 1007.6 hPa | 0 mm | - | - | - |
| 1778005815 | 16.11° C | 54% | 1007.7 hPa | 0 mm | - | - | - |
| 1778004796 | 16.67° C | 53% | 1007.7 hPa | 0 mm | - | - | - |
| 1778003752 | 16.67° C | 52% | 1007.8 hPa | 0 mm | - | - | - |
| 1778002605 | 17.78° C | 52% | 1008 hPa | 0 mm | - | - | - |
| 1778001493 | 18.33° C | 50% | 1007.7 hPa | 0 mm | - | - | - |
| 1778000361 | 18.89° C | 44% | 1007.5 hPa | 0 mm | - | - | - |
| 1777999210 | 21.67° C | 30% | 1007.1 hPa | 0 mm | - | - | - |
| 1777998232 | 22.22° C | 30% | 1007.1 hPa | 0 mm | - | - | - |
| 1777997150 | 22.78° C | 29% | 1007.2 hPa | 0 mm | - | - | - |
| 1777996073 | 23.89° C | 27% | 1007.1 hPa | 0 mm | - | - | - |
| 1777994991 | 24.44° C | 25% | 1007 hPa | 0 mm | - | - | - |
| 1777993931 | 24.44° C | 26% | 1007 hPa | 0 mm | - | - | - |
| 1777992817 | 25° C | 24% | 1007.2 hPa | 0 mm | - | - | - |
| 1777991697 | 25° C | 26% | 1007.2 hPa | 0 mm | - | - | - |
| 1777990619 | 23.33° C | 25% | 1007.5 hPa | 0 mm | - | - | - |
| 1777989531 | 25° C | 26% | 1007.5 hPa | 0 mm | - | - | - |
| 1777988455 | 23.89° C | 31% | 1007.6 hPa | 0 mm | - | - | - |
| 1777987440 | 22.22° C | 34% | 1007.9 hPa | 0 mm | - | - | - |
| 1777986386 | 22.22° C | 33% | 1007.9 hPa | 0 mm | - | - | - |
| 1777985371 | 21.67° C | 32% | 1007.9 hPa | 0 mm | - | - | - |
* Rain latest hour (hover to see other rain measurements)
** Current wind speed in m/s (hover to see current wind gust speed)